MSC Lirica — HOPW — position and weather

sailwx.info

Track history (hours):
 
Tides and Currents Weather Stations Pressure Air Temp Water Temp Dewpoint Dewpoint Depression Visibility Wind Speed Wind Dir Waves Ship Positions

MSC Lirica

Operator: Mediterranean Shipping Company

Last reported at 2017-Mar-30 20:11 UTC. Time now 2017-Mar-30 22:51 UTC.
Position N 38°45' E 119°43'.

Length 275 m; draft 6.8 m.

Type: Ship. MMSI: 356042000.

Date/timePositionNaut miles runAvg speedWind from/ knotsBaromVisibWave heightAir tempDewpointWater temp
2017-Mar-30 20:11N 38°45' E 119°43'1317.6
2017-Mar-30 19:27N 38°44' E 119°59'1717.9
2017-Mar-30 18:31N 38°41' E 120°20'6616.5
2017-Mar-30 14:33N 38°18' E 121°39'1717.7
2017-Mar-30 13:33N 38°10' E 121°58'4018.1
2017-Mar-30 11:21N 37°51' E 122°43'  
2017-Mar-26 23:24N 38°35' E 120°38'2 0.8
2017-Mar-26 21:11N 38°35' E 120°36'  
2017-Mar-21 10:33N 24°17' E 118°14'1414.1
2017-Mar-21 09:33N 24°27' E 118°03'3 1.3
2017-Mar-21 07:26N 24°29' E 118°04'0 0.0
2017-Mar-21 06:25N 24°29' E 118°04'0 0.0
2017-Mar-21 05:31N 24°29' E 118°04'0 0.0
2017-Mar-21 01:23N 24°29' E 118°04'2 2.9
2017-Mar-21 00:33N 24°27' E 118°03'1212.3
2017-Mar-20 23:34N 24°19' E 118°12'1514.7
2017-Mar-20 22:33N 24°05' E 118°17'  
Track history (hours):
 
Tides and Currents Weather Stations Pressure Air Temp Water Temp Dewpoint Dewpoint Depression Visibility Wind Speed Wind Dir Waves Ship Positions

MSC Lirica

Operator: Mediterranean Shipping Company

Last reported at 2017-Mar-30 20:11 UTC. Time now 2017-Mar-30 22:51 UTC.
Position N 38°45' E 119°43'.

Length 275 m; draft 6.8 m.

Type: Ship. MMSI: 356042000.

Date/timePositionNaut miles runAvg speedWind from/ knotsBaromVisibWave heightAir tempDewpointWater temp
2017-Mar-30 20:11N 38°45' E 119°43'1317.6
2017-Mar-30 19:27N 38°44' E 119°59'1717.9
2017-Mar-30 18:31N 38°41' E 120°20'6616.5
2017-Mar-30 14:33N 38°18' E 121°39'1717.7
2017-Mar-30 13:33N 38°10' E 121°58'4018.1
2017-Mar-30 11:21N 37°51' E 122°43'  
2017-Mar-26 23:24N 38°35' E 120°38'2 0.8
2017-Mar-26 21:11N 38°35' E 120°36'  
2017-Mar-21 10:33N 24°17' E 118°14'1414.1
2017-Mar-21 09:33N 24°27' E 118°03'3 1.3
2017-Mar-21 07:26N 24°29' E 118°04'0 0.0
2017-Mar-21 06:25N 24°29' E 118°04'0 0.0
2017-Mar-21 05:31N 24°29' E 118°04'0 0.0
2017-Mar-21 01:23N 24°29' E 118°04'2 2.9
2017-Mar-21 00:33N 24°27' E 118°03'1212.3
2017-Mar-20 23:34N 24°19' E 118°12'1514.7
2017-Mar-20 22:33N 24°05' E 118°17'  

Dump ship's entire track history